createdAt,value
2019-01-17T00:01:45.366Z,70.4
2019-01-17T00:11:48.791Z,70.2
2019-01-17T00:21:52.209Z,70
2019-01-17T00:31:55.619Z,69.7
2019-01-17T00:41:59.039Z,70
2019-01-17T00:52:02.469Z,70.4
2019-01-17T01:02:05.872Z,70.7
2019-01-17T01:12:09.267Z,70.6
2019-01-17T01:22:12.681Z,70.6
2019-01-17T01:32:16.099Z,70.6
2019-01-17T01:42:19.529Z,70.1
2019-01-17T01:52:22.945Z,70.8
2019-01-17T02:02:26.360Z,71.1
2019-01-17T02:12:29.814Z,70.4
2019-01-17T02:22:33.228Z,71.1
2019-01-17T02:32:36.665Z,71.7
2019-01-17T02:42:40.128Z,71.3
2019-01-17T02:52:43.514Z,71.4
2019-01-17T03:02:46.946Z,71.3
2019-01-17T03:12:50.348Z,71.4
2019-01-17T03:22:53.758Z,71.6
2019-01-17T03:32:57.213Z,71.9
2019-01-17T03:43:00.663Z,71.2
2019-01-17T03:53:04.077Z,71.5
2019-01-17T04:03:07.489Z,71.5
2019-01-17T04:13:10.903Z,71.2
2019-01-17T04:23:14.333Z,71.5
2019-01-17T04:33:17.744Z,72
2019-01-17T04:43:21.147Z,71.4
2019-01-17T04:53:24.557Z,71.3
2019-01-17T05:03:27.996Z,71.7
2019-01-17T05:13:31.434Z,72
2019-01-17T05:23:34.865Z,72
2019-01-17T05:33:38.299Z,71.8
2019-01-17T05:43:41.739Z,71.9
2019-01-17T05:53:45.121Z,72.3
2019-01-17T06:03:48.509Z,72.6
2019-01-17T06:13:51.898Z,73
2019-01-17T06:23:55.311Z,73.7
2019-01-17T06:33:58.721Z,74.1
2019-01-17T06:44:02.184Z,73.9
2019-01-17T06:54:05.647Z,73.9
2019-01-17T07:04:09.045Z,75.1
2019-01-17T07:14:12.498Z,75.2
2019-01-17T07:24:15.915Z,75.1
2019-01-17T07:34:19.327Z,75.1
2019-01-17T07:44:23.755Z,74.6
2019-01-17T07:54:27.174Z,74.8
2019-01-17T08:04:30.593Z,75.2
2019-01-17T08:14:33.999Z,75.4
2019-01-17T08:24:37.424Z,75.3
2019-01-17T08:34:40.814Z,75.1
2019-01-17T08:44:44.202Z,75.5
2019-01-17T08:54:47.628Z,75.9
2019-01-17T09:04:51.044Z,75.5
2019-01-17T09:14:54.468Z,75.9
2019-01-17T09:24:57.881Z,77.9
2019-01-17T09:35:01.277Z,78.4
2019-01-17T09:45:04.689Z,76.9
2019-01-17T09:55:08.120Z,75.9
2019-01-17T10:05:11.530Z,75.8
2019-01-17T10:15:14.949Z,76.2
2019-01-17T10:25:18.350Z,77.7
2019-01-17T10:35:21.765Z,78.3
2019-01-17T10:45:25.203Z,82.1
2019-01-17T10:55:28.601Z,85.2
2019-01-17T11:05:32.015Z,84.2
2019-01-17T11:15:35.428Z,82.6
2019-01-17T11:25:38.907Z,84
2019-01-17T11:35:42.349Z,83.3
2019-01-17T11:45:45.822Z,84.1
2019-01-17T11:55:49.262Z,84
2019-01-17T12:05:52.683Z,83.7
2019-01-17T12:15:56.093Z,83.2
2019-01-17T12:25:59.499Z,82.6
2019-01-17T12:36:02.961Z,81.2
2019-01-17T12:46:06.415Z,81.5
2019-01-17T12:56:09.838Z,80
2019-01-17T13:06:13.261Z,80.6
2019-01-17T13:16:16.695Z,79.3
2019-01-17T13:26:20.110Z,80.1
2019-01-17T13:36:23.544Z,79.3
2019-01-17T13:46:27.003Z,79.9
2019-01-17T13:56:30.424Z,80.2
2019-01-17T14:06:33.829Z,79.6
2019-01-17T14:16:37.232Z,79.5
2019-01-17T14:26:40.676Z,79.5
2019-01-17T14:36:44.115Z,83.5
2019-01-17T14:46:47.540Z,81.9
2019-01-17T14:56:50.940Z,81.1
2019-01-17T15:06:54.364Z,80.2
2019-01-17T15:16:57.793Z,79
2019-01-17T15:27:01.217Z,78.8
2019-01-17T15:37:04.630Z,79.4
2019-01-17T15:47:13.381Z,78.4
2019-01-17T15:57:16.818Z,78.3
2019-01-17T16:07:20.224Z,76.9
2019-01-17T16:17:23.651Z,76.6
2019-01-17T16:27:27.124Z,79.3
2019-01-17T16:37:30.560Z,79.9
2019-01-17T16:47:33.975Z,78.8
2019-01-17T16:57:37.381Z,77.2
2019-01-17T17:07:40.836Z,78.6
2019-01-17T17:17:44.279Z,78.9
2019-01-17T17:27:47.686Z,78.1
2019-01-17T17:37:51.100Z,77.2
2019-01-17T17:47:54.553Z,77.5
2019-01-17T17:58:02.511Z,76.7
2019-01-17T18:08:05.942Z,74.9
2019-01-17T18:18:09.327Z,74.7
2019-01-17T18:28:12.731Z,74.1
2019-01-17T18:38:16.144Z,73.5
2019-01-17T18:48:19.562Z,72.6
2019-01-17T18:58:23.014Z,73.6
2019-01-17T19:08:28.432Z,72.7
2019-01-17T19:18:31.845Z,72.7
2019-01-17T19:28:35.252Z,72.2
2019-01-17T19:38:38.691Z,72
2019-01-17T19:48:42.087Z,70.9
2019-01-17T20:08:53.842Z,71.2
2019-01-17T20:18:57.277Z,70.8
2019-01-17T20:29:00.677Z,70.6
2019-01-17T20:39:05.116Z,70.4
2019-01-17T20:49:08.553Z,69.6
2019-01-17T20:59:11.976Z,69.5
2019-01-17T21:09:15.372Z,68.5
2019-01-17T21:19:18.784Z,68.5
2019-01-17T21:29:22.196Z,68.7
2019-01-17T21:39:25.639Z,69.8
2019-01-17T21:49:29.060Z,70
2019-01-17T21:59:32.490Z,70.5
2019-01-17T22:09:35.930Z,68.6
2019-01-17T22:19:39.326Z,68.3
2019-01-17T22:29:42.782Z,67.8
2019-01-17T22:39:46.224Z,68.3
2019-01-17T22:49:49.681Z,68.2
2019-01-17T22:59:53.152Z,68.1
2019-01-17T23:09:56.589Z,67.5
2019-01-17T23:20:00.025Z,69.2
2019-01-17T23:30:03.521Z,70.7
2019-01-17T23:40:06.944Z,70.6
2019-01-17T23:50:10.383Z,71.4
